sensor_id;sensor_type;location;lat;lon;timestamp;P1;durP1;ratioP1;P2;durP2;ratioP2
3543;SDS011;1786;52.870;9.578;2023-03-01T00:01:11;3.70;;;2.77;;
3543;SDS011;1786;52.870;9.578;2023-03-01T00:03:38;2.80;;;2.60;;
3543;SDS011;1786;52.870;9.578;2023-03-01T00:06:04;2.50;;;2.30;;
3543;SDS011;1786;52.870;9.578;2023-03-01T00:08:32;2.53;;;2.43;;
3543;SDS011;1786;52.870;9.578;2023-03-01T00:13:46;3.20;;;2.43;;
3543;SDS011;1786;52.870;9.578;2023-03-01T00:16:17;3.10;;;2.33;;
3543;SDS011;1786;52.870;9.578;2023-03-01T00:18:45;2.80;;;2.60;;
3543;SDS011;1786;52.870;9.578;2023-03-01T00:21:11;2.23;;;2.03;;
3543;SDS011;1786;52.870;9.578;2023-03-01T00:23:38;1.90;;;1.70;;
3543;SDS011;1786;52.870;9.578;2023-03-01T00:26:05;2.70;;;2.50;;
3543;SDS011;1786;52.870;9.578;2023-03-01T00:28:32;4.00;;;2.43;;
3543;SDS011;1786;52.870;9.578;2023-03-01T00:31:03;3.30;;;2.80;;
3543;SDS011;1786;52.870;9.578;2023-03-01T00:33:29;4.20;;;2.70;;
3543;SDS011;1786;52.870;9.578;2023-03-01T00:35:57;3.37;;;2.23;;
3543;SDS011;1786;52.870;9.578;2023-03-01T00:38:24;2.43;;;2.20;;
3543;SDS011;1786;52.870;9.578;2023-03-01T00:40:51;2.63;;;2.43;;
3543;SDS011;1786;52.870;9.578;2023-03-01T00:43:17;2.90;;;2.63;;
3543;SDS011;1786;52.870;9.578;2023-03-01T00:45:44;2.10;;;2.00;;
3543;SDS011;1786;52.870;9.578;2023-03-01T00:48:10;7.60;;;2.20;;
3543;SDS011;1786;52.870;9.578;2023-03-01T00:50:37;4.40;;;2.33;;
3543;SDS011;1786;52.870;9.578;2023-03-01T00:53:03;2.03;;;1.93;;
3543;SDS011;1786;52.870;9.578;2023-03-01T00:55:31;2.60;;;2.50;;
3543;SDS011;1786;52.870;9.578;2023-03-01T00:57:58;1.97;;;1.93;;
3543;SDS011;1786;52.870;9.578;2023-03-01T01:00:24;2.27;;;2.10;;
3543;SDS011;1786;52.870;9.578;2023-03-01T01:02:54;2.47;;;2.30;;
3543;SDS011;1786;52.870;9.578;2023-03-01T01:05:21;3.10;;;2.80;;
3543;SDS011;1786;52.870;9.578;2023-03-01T01:07:48;2.00;;;1.90;;
3543;SDS011;1786;52.870;9.578;2023-03-01T01:10:14;2.17;;;2.07;;
3543;SDS011;1786;52.870;9.578;2023-03-01T01:12:44;1.93;;;1.83;;
3543;SDS011;1786;52.870;9.578;2023-03-01T01:15:10;3.53;;;2.53;;
3543;SDS011;1786;52.870;9.578;2023-03-01T01:17:39;2.57;;;2.20;;
3543;SDS011;1786;52.870;9.578;2023-03-01T01:20:07;3.07;;;2.70;;
3543;SDS011;1786;52.870;9.578;2023-03-01T01:22:33;2.93;;;2.67;;
3543;SDS011;1786;52.870;9.578;2023-03-01T01:25:00;4.27;;;2.30;;
3543;SDS011;1786;52.870;9.578;2023-03-01T01:27:26;1.63;;;1.63;;
3543;SDS011;1786;52.870;9.578;2023-03-01T01:29:53;2.63;;;2.43;;
3543;SDS011;1786;52.870;9.578;2023-03-01T01:32:20;3.30;;;3.07;;
3543;SDS011;1786;52.870;9.578;2023-03-01T01:34:46;2.20;;;2.10;;
3543;SDS011;1786;52.870;9.578;2023-03-01T01:37:13;1.70;;;1.70;;
3543;SDS011;1786;52.870;9.578;2023-03-01T01:39:39;1.87;;;1.67;;
3543;SDS011;1786;52.870;9.578;2023-03-01T01:42:09;2.43;;;2.10;;
3543;SDS011;1786;52.870;9.578;2023-03-01T01:44:39;1.80;;;1.70;;
3543;SDS011;1786;52.870;9.578;2023-03-01T01:47:07;3.13;;;2.27;;
3543;SDS011;1786;52.870;9.578;2023-03-01T01:49:41;2.67;;;2.27;;
3543;SDS011;1786;52.870;9.578;2023-03-01T01:52:28;2.13;;;1.93;;
3543;SDS011;1786;52.870;9.578;2023-03-01T01:55:05;3.10;;;1.80;;
3543;SDS011;1786;52.870;9.578;2023-03-01T01:57:37;3.10;;;2.10;;
3543;SDS011;1786;52.870;9.578;2023-03-01T02:00:06;1.93;;;1.80;;
3543;SDS011;1786;52.870;9.578;2023-03-01T02:02:38;2.30;;;1.80;;
3543;SDS011;1786;52.870;9.578;2023-03-01T02:05:17;2.30;;;1.93;;
3543;SDS011;1786;52.870;9.578;2023-03-01T02:07:47;3.13;;;1.87;;
3543;SDS011;1786;52.870;9.578;2023-03-01T02:10:18;1.60;;;1.50;;
3543;SDS011;1786;52.870;9.578;2023-03-01T02:12:45;2.37;;;2.27;;
3543;SDS011;1786;52.870;9.578;2023-03-01T02:15:12;2.40;;;2.03;;
3543;SDS011;1786;52.870;9.578;2023-03-01T02:17:39;4.93;;;2.10;;
3543;SDS011;1786;52.870;9.578;2023-03-01T02:20:18;4.13;;;2.00;;
3543;SDS011;1786;52.870;9.578;2023-03-01T02:22:47;1.70;;;1.60;;
3543;SDS011;1786;52.870;9.578;2023-03-01T02:27:54;2.50;;;2.30;;
3543;SDS011;1786;52.870;9.578;2023-03-01T02:30:25;2.30;;;1.73;;
3543;SDS011;1786;52.870;9.578;2023-03-01T02:32:52;1.93;;;1.83;;
3543;SDS011;1786;52.870;9.578;2023-03-01T02:35:19;4.10;;;1.97;;
3543;SDS011;1786;52.870;9.578;2023-03-01T02:37:45;2.17;;;1.80;;
3543;SDS011;1786;52.870;9.578;2023-03-01T02:40:14;1.60;;;1.50;;
3543;SDS011;1786;52.870;9.578;2023-03-01T02:42:47;1.70;;;1.60;;
3543;SDS011;1786;52.870;9.578;2023-03-01T02:45:15;1.27;;;1.27;;
3543;SDS011;1786;52.870;9.578;2023-03-01T02:47:42;2.03;;;1.83;;
3543;SDS011;1786;52.870;9.578;2023-03-01T02:53:08;1.67;;;1.57;;
3543;SDS011;1786;52.870;9.578;2023-03-01T02:55:37;2.20;;;2.10;;
3543;SDS011;1786;52.870;9.578;2023-03-01T02:58:03;1.70;;;1.70;;
3543;SDS011;1786;52.870;9.578;2023-03-01T03:00:33;2.43;;;2.00;;
3543;SDS011;1786;52.870;9.578;2023-03-01T03:03:00;1.90;;;1.80;;
3543;SDS011;1786;52.870;9.578;2023-03-01T03:05:28;3.37;;;2.17;;
3543;SDS011;1786;52.870;9.578;2023-03-01T03:07:56;2.43;;;1.93;;
3543;SDS011;1786;52.870;9.578;2023-03-01T03:10:26;4.63;;;2.60;;
3543;SDS011;1786;52.870;9.578;2023-03-01T03:12:57;1.90;;;1.80;;
3543;SDS011;1786;52.870;9.578;2023-03-01T03:15:25;1.70;;;1.60;;
3543;SDS011;1786;52.870;9.578;2023-03-01T03:17:52;5.67;;;1.60;;
3543;SDS011;1786;52.870;9.578;2023-03-01T03:20:19;2.20;;;1.90;;
3543;SDS011;1786;52.870;9.578;2023-03-01T03:22:47;2.07;;;1.97;;
3543;SDS011;1786;52.870;9.578;2023-03-01T03:25:15;4.10;;;3.20;;
3543;SDS011;1786;52.870;9.578;2023-03-01T03:27:42;4.37;;;3.83;;
3543;SDS011;1786;52.870;9.578;2023-03-01T03:30:11;2.57;;;2.33;;
3543;SDS011;1786;52.870;9.578;2023-03-01T03:32:40;2.47;;;2.30;;
3543;SDS011;1786;52.870;9.578;2023-03-01T03:35:07;11.50;;;2.57;;
3543;SDS011;1786;52.870;9.578;2023-03-01T03:37:39;2.03;;;1.90;;
3543;SDS011;1786;52.870;9.578;2023-03-01T03:40:24;3.03;;;1.63;;
3543;SDS011;1786;52.870;9.578;2023-03-01T03:42:51;1.90;;;1.80;;
3543;SDS011;1786;52.870;9.578;2023-03-01T03:45:18;1.70;;;1.60;;
3543;SDS011;1786;52.870;9.578;2023-03-01T03:47:44;2.60;;;1.77;;
3543;SDS011;1786;52.870;9.578;2023-03-01T03:50:11;4.40;;;1.50;;
3543;SDS011;1786;52.870;9.578;2023-03-01T03:52:38;1.60;;;1.50;;
3543;SDS011;1786;52.870;9.578;2023-03-01T03:55:05;2.37;;;1.60;;
3543;SDS011;1786;52.870;9.578;2023-03-01T03:57:36;1.77;;;1.67;;
3543;SDS011;1786;52.870;9.578;2023-03-01T04:00:04;2.17;;;1.40;;
3543;SDS011;1786;52.870;9.578;2023-03-01T04:02:37;1.23;;;1.23;;
3543;SDS011;1786;52.870;9.578;2023-03-01T04:05:04;2.10;;;1.63;;
3543;SDS011;1786;52.870;9.578;2023-03-01T04:07:30;1.90;;;1.70;;
3543;SDS011;1786;52.870;9.578;2023-03-01T04:09:57;5.83;;;1.97;;
3543;SDS011;1786;52.870;9.578;2023-03-01T04:12:23;2.70;;;2.50;;
3543;SDS011;1786;52.870;9.578;2023-03-01T04:14:50;2.27;;;1.33;;
3543;SDS011;1786;52.870;9.578;2023-03-01T04:17:17;3.43;;;1.77;;
3543;SDS011;1786;52.870;9.578;2023-03-01T04:19:45;1.70;;;1.60;;
3543;SDS011;1786;52.870;9.578;2023-03-01T04:22:15;1.50;;;1.40;;
3543;SDS011;1786;52.870;9.578;2023-03-01T04:24:44;1.67;;;1.57;;
3543;SDS011;1786;52.870;9.578;2023-03-01T04:27:11;1.90;;;1.80;;
3543;SDS011;1786;52.870;9.578;2023-03-01T04:29:37;2.33;;;1.77;;
3543;SDS011;1786;52.870;9.578;2023-03-01T04:32:04;3.33;;;1.73;;
3543;SDS011;1786;52.870;9.578;2023-03-01T04:34:31;2.00;;;1.90;;
3543;SDS011;1786;52.870;9.578;2023-03-01T04:36:57;1.80;;;1.73;;
3543;SDS011;1786;52.870;9.578;2023-03-01T04:39:24;3.37;;;3.07;;
3543;SDS011;1786;52.870;9.578;2023-03-01T04:41:50;6.27;;;4.63;;
3543;SDS011;1786;52.870;9.578;2023-03-01T04:44:16;3.53;;;3.30;;
3543;SDS011;1786;52.870;9.578;2023-03-01T04:46:43;4.07;;;3.80;;
3543;SDS011;1786;52.870;9.578;2023-03-01T04:49:09;2.17;;;1.97;;
3543;SDS011;1786;52.870;9.578;2023-03-01T04:51:36;2.77;;;2.03;;
3543;SDS011;1786;52.870;9.578;2023-03-01T04:54:02;2.07;;;1.87;;
3543;SDS011;1786;52.870;9.578;2023-03-01T04:56:29;2.37;;;2.20;;
3543;SDS011;1786;52.870;9.578;2023-03-01T04:58:56;1.67;;;1.57;;
3543;SDS011;1786;52.870;9.578;2023-03-01T05:01:23;6.70;;;2.40;;
3543;SDS011;1786;52.870;9.578;2023-03-01T05:03:50;1.60;;;1.50;;
3543;SDS011;1786;52.870;9.578;2023-03-01T05:06:17;1.70;;;1.60;;
3543;SDS011;1786;52.870;9.578;2023-03-01T05:08:44;1.80;;;1.70;;
3543;SDS011;1786;52.870;9.578;2023-03-01T05:11:11;2.30;;;1.80;;
3543;SDS011;1786;52.870;9.578;2023-03-01T05:13:38;2.33;;;2.10;;
3543;SDS011;1786;52.870;9.578;2023-03-01T05:16:05;4.00;;;2.40;;
3543;SDS011;1786;52.870;9.578;2023-03-01T05:18:33;3.17;;;2.90;;
3543;SDS011;1786;52.870;9.578;2023-03-01T05:21:09;3.33;;;3.07;;
3543;SDS011;1786;52.870;9.578;2023-03-01T05:23:36;2.47;;;2.37;;
3543;SDS011;1786;52.870;9.578;2023-03-01T05:26:03;2.07;;;1.97;;
3543;SDS011;1786;52.870;9.578;2023-03-01T05:28:33;1.70;;;1.70;;
3543;SDS011;1786;52.870;9.578;2023-03-01T05:30:59;1.30;;;1.30;;
3543;SDS011;1786;52.870;9.578;2023-03-01T05:33:26;1.73;;;1.63;;
3543;SDS011;1786;52.870;9.578;2023-03-01T05:35:53;1.83;;;1.70;;
3543;SDS011;1786;52.870;9.578;2023-03-01T05:38:20;1.80;;;1.70;;
3543;SDS011;1786;52.870;9.578;2023-03-01T05:40:47;1.50;;;1.40;;
3543;SDS011;1786;52.870;9.578;2023-03-01T05:43:14;2.17;;;1.97;;
3543;SDS011;1786;52.870;9.578;2023-03-01T05:45:41;1.80;;;1.70;;
3543;SDS011;1786;52.870;9.578;2023-03-01T05:48:08;2.73;;;1.77;;
3543;SDS011;1786;52.870;9.578;2023-03-01T05:50:36;1.60;;;1.60;;
3543;SDS011;1786;52.870;9.578;2023-03-01T05:53:12;2.03;;;1.93;;
3543;SDS011;1786;52.870;9.578;2023-03-01T05:55:39;2.03;;;1.70;;
3543;SDS011;1786;52.870;9.578;2023-03-01T05:58:07;1.70;;;1.60;;
3543;SDS011;1786;52.870;9.578;2023-03-01T06:00:34;1.87;;;1.77;;
3543;SDS011;1786;52.870;9.578;2023-03-01T06:03:00;1.90;;;1.80;;
3543;SDS011;1786;52.870;9.578;2023-03-01T06:05:27;1.97;;;1.87;;
3543;SDS011;1786;52.870;9.578;2023-03-01T06:07:54;2.70;;;1.70;;
3543;SDS011;1786;52.870;9.578;2023-03-01T06:10:21;1.70;;;1.63;;
3543;SDS011;1786;52.870;9.578;2023-03-01T06:12:48;1.57;;;1.43;;
3543;SDS011;1786;52.870;9.578;2023-03-01T06:15:15;1.80;;;1.73;;
3543;SDS011;1786;52.870;9.578;2023-03-01T06:17:42;2.07;;;1.93;;
3543;SDS011;1786;52.870;9.578;2023-03-01T06:20:14;2.07;;;1.90;;
3543;SDS011;1786;52.870;9.578;2023-03-01T06:22:41;2.40;;;2.30;;
3543;SDS011;1786;52.870;9.578;2023-03-01T06:25:08;1.80;;;1.70;;
3543;SDS011;1786;52.870;9.578;2023-03-01T06:27:35;2.13;;;2.00;;
3543;SDS011;1786;52.870;9.578;2023-03-01T06:30:02;3.80;;;2.60;;
3543;SDS011;1786;52.870;9.578;2023-03-01T06:32:29;6.37;;;4.00;;
3543;SDS011;1786;52.870;9.578;2023-03-01T06:34:56;5.63;;;5.10;;
3543;SDS011;1786;52.870;9.578;2023-03-01T06:37:25;5.13;;;4.63;;
3543;SDS011;1786;52.870;9.578;2023-03-01T06:39:51;12.73;;;4.83;;
3543;SDS011;1786;52.870;9.578;2023-03-01T06:42:17;5.40;;;4.87;;
3543;SDS011;1786;52.870;9.578;2023-03-01T06:44:44;5.27;;;4.83;;
3543;SDS011;1786;52.870;9.578;2023-03-01T06:47:11;7.20;;;6.00;;
3543;SDS011;1786;52.870;9.578;2023-03-01T06:49:37;8.43;;;6.77;;
3543;SDS011;1786;52.870;9.578;2023-03-01T06:52:04;11.00;;;6.10;;
3543;SDS011;1786;52.870;9.578;2023-03-01T06:54:30;6.80;;;5.53;;
3543;SDS011;1786;52.870;9.578;2023-03-01T06:56:57;9.37;;;5.83;;
3543;SDS011;1786;52.870;9.578;2023-03-01T06:59:23;6.73;;;4.80;;
3543;SDS011;1786;52.870;9.578;2023-03-01T07:01:50;7.17;;;5.53;;
3543;SDS011;1786;52.870;9.578;2023-03-01T07:04:16;5.50;;;4.57;;
3543;SDS011;1786;52.870;9.578;2023-03-01T07:06:42;4.93;;;4.47;;
3543;SDS011;1786;52.870;9.578;2023-03-01T07:09:09;8.10;;;4.73;;
3543;SDS011;1786;52.870;9.578;2023-03-01T07:11:35;6.03;;;4.60;;
3543;SDS011;1786;52.870;9.578;2023-03-01T07:14:02;5.60;;;4.20;;
3543;SDS011;1786;52.870;9.578;2023-03-01T07:16:29;3.97;;;3.60;;
3543;SDS011;1786;52.870;9.578;2023-03-01T07:18:56;19.70;;;6.57;;
3543;SDS011;1786;52.870;9.578;2023-03-01T07:21:25;8.90;;;5.53;;
3543;SDS011;1786;52.870;9.578;2023-03-01T07:23:51;10.27;;;6.50;;
3543;SDS011;1786;52.870;9.578;2023-03-01T07:26:17;8.10;;;7.00;;
3543;SDS011;1786;52.870;9.578;2023-03-01T07:28:44;6.10;;;5.50;;
3543;SDS011;1786;52.870;9.578;2023-03-01T07:31:11;4.80;;;4.30;;
3543;SDS011;1786;52.870;9.578;2023-03-01T07:33:37;3.80;;;3.60;;
3543;SDS011;1786;52.870;9.578;2023-03-01T07:36:04;9.53;;;7.73;;
3543;SDS011;1786;52.870;9.578;2023-03-01T07:38:30;7.53;;;6.10;;
3543;SDS011;1786;52.870;9.578;2023-03-01T07:40:58;32.57;;;17.47;;
3543;SDS011;1786;52.870;9.578;2023-03-01T07:43:25;25.57;;;15.60;;
3543;SDS011;1786;52.870;9.578;2023-03-01T07:45:51;10.30;;;7.73;;
3543;SDS011;1786;52.870;9.578;2023-03-01T07:48:18;15.00;;;9.37;;
3543;SDS011;1786;52.870;9.578;2023-03-01T07:50:44;10.27;;;5.93;;
3543;SDS011;1786;52.870;9.578;2023-03-01T07:53:11;16.87;;;11.37;;
3543;SDS011;1786;52.870;9.578;2023-03-01T07:55:37;28.90;;;17.73;;
3543;SDS011;1786;52.870;9.578;2023-03-01T07:58:04;44.67;;;24.60;;
3543;SDS011;1786;52.870;9.578;2023-03-01T08:00:30;20.80;;;9.60;;
3543;SDS011;1786;52.870;9.578;2023-03-01T08:03:00;39.23;;;22.80;;
3543;SDS011;1786;52.870;9.578;2023-03-01T08:05:29;9.57;;;7.37;;
3543;SDS011;1786;52.870;9.578;2023-03-01T08:07:56;7.50;;;5.77;;
3543;SDS011;1786;52.870;9.578;2023-03-01T08:10:22;5.70;;;5.13;;
3543;SDS011;1786;52.870;9.578;2023-03-01T08:12:50;9.50;;;5.60;;
3543;SDS011;1786;52.870;9.578;2023-03-01T08:15:17;4.80;;;4.33;;
3543;SDS011;1786;52.870;9.578;2023-03-01T08:17:45;4.83;;;4.33;;
3543;SDS011;1786;52.870;9.578;2023-03-01T08:20:12;4.83;;;4.30;;
3543;SDS011;1786;52.870;9.578;2023-03-01T08:22:39;6.17;;;4.53;;
3543;SDS011;1786;52.870;9.578;2023-03-01T08:25:05;8.13;;;4.53;;
3543;SDS011;1786;52.870;9.578;2023-03-01T08:27:32;4.57;;;4.17;;
3543;SDS011;1786;52.870;9.578;2023-03-01T08:29:59;4.60;;;3.80;;
3543;SDS011;1786;52.870;9.578;2023-03-01T08:32:25;5.80;;;5.20;;
3543;SDS011;1786;52.870;9.578;2023-03-01T08:34:52;5.67;;;5.17;;
3543;SDS011;1786;52.870;9.578;2023-03-01T08:37:19;6.53;;;5.90;;
3543;SDS011;1786;52.870;9.578;2023-03-01T08:39:46;6.10;;;5.50;;
3543;SDS011;1786;52.870;9.578;2023-03-01T08:42:12;8.93;;;7.23;;
3543;SDS011;1786;52.870;9.578;2023-03-01T08:44:39;13.73;;;9.20;;
3543;SDS011;1786;52.870;9.578;2023-03-01T08:47:05;7.70;;;6.55;;
3543;SDS011;1786;52.870;9.578;2023-03-01T08:49:32;5.47;;;4.90;;
3543;SDS011;1786;52.870;9.578;2023-03-01T08:51:59;5.78;;;5.28;;
3543;SDS011;1786;52.870;9.578;2023-03-01T08:54:25;7.68;;;6.70;;
3543;SDS011;1786;52.870;9.578;2023-03-01T08:56:52;6.40;;;5.13;;
3543;SDS011;1786;52.870;9.578;2023-03-01T08:59:18;6.30;;;5.65;;
3543;SDS011;1786;52.870;9.578;2023-03-01T09:01:45;6.03;;;3.95;;
3543;SDS011;1786;52.870;9.578;2023-03-01T09:04:12;3.38;;;3.17;;
3543;SDS011;1786;52.870;9.578;2023-03-01T09:06:39;3.25;;;3.08;;
3543;SDS011;1786;52.870;9.578;2023-03-01T09:09:06;4.15;;;3.75;;
3543;SDS011;1786;52.870;9.578;2023-03-01T09:11:32;3.60;;;3.22;;
3543;SDS011;1786;52.870;9.578;2023-03-01T09:13:59;3.83;;;3.15;;
3543;SDS011;1786;52.870;9.578;2023-03-01T09:16:26;2.22;;;2.13;;
3543;SDS011;1786;52.870;9.578;2023-03-01T09:18:53;3.33;;;2.15;;
3543;SDS011;1786;52.870;9.578;2023-03-01T09:21:21;2.25;;;2.15;;
3543;SDS011;1786;52.870;9.578;2023-03-01T09:24:04;3.47;;;2.33;;
3543;SDS011;1786;52.870;9.578;2023-03-01T09:26:31;4.18;;;1.75;;
3543;SDS011;1786;52.870;9.578;2023-03-01T09:28:58;2.17;;;1.92;;
3543;SDS011;1786;52.870;9.578;2023-03-01T09:31:25;2.20;;;2.10;;
3543;SDS011;1786;52.870;9.578;2023-03-01T09:33:52;2.83;;;2.63;;
3543;SDS011;1786;52.870;9.578;2023-03-01T09:36:19;2.97;;;2.33;;
3543;SDS011;1786;52.870;9.578;2023-03-01T09:38:47;2.55;;;1.88;;
3543;SDS011;1786;52.870;9.578;2023-03-01T09:43:52;1.87;;;1.70;;
3543;SDS011;1786;52.870;9.578;2023-03-01T09:46:22;2.10;;;2.00;;
3543;SDS011;1786;52.870;9.578;2023-03-01T09:48:50;11.80;;;2.80;;
3543;SDS011;1786;52.870;9.578;2023-03-01T09:51:19;2.22;;;2.10;;
3543;SDS011;1786;52.870;9.578;2023-03-01T09:53:47;1.90;;;1.80;;
3543;SDS011;1786;52.870;9.578;2023-03-01T09:56:18;2.10;;;2.00;;
3543;SDS011;1786;52.870;9.578;2023-03-01T10:06:36;3.23;;;2.90;;
3543;SDS011;1786;52.870;9.578;2023-03-01T10:09:05;4.17;;;3.77;;
3543;SDS011;1786;52.870;9.578;2023-03-01T10:11:35;3.77;;;2.30;;
3543;SDS011;1786;52.870;9.578;2023-03-01T10:17:03;5.03;;;2.80;;
3543;SDS011;1786;52.870;9.578;2023-03-01T10:19:38;5.57;;;4.77;;
3543;SDS011;1786;52.870;9.578;2023-03-01T10:22:22;6.80;;;3.43;;
3543;SDS011;1786;52.870;9.578;2023-03-01T10:24:51;7.57;;;6.17;;
3543;SDS011;1786;52.870;9.578;2023-03-01T10:27:34;10.17;;;8.83;;
3543;SDS011;1786;52.870;9.578;2023-03-01T10:30:09;5.80;;;4.77;;
3543;SDS011;1786;52.870;9.578;2023-03-01T10:32:38;4.73;;;4.33;;
3543;SDS011;1786;52.870;9.578;2023-03-01T10:35:18;8.93;;;5.33;;
3543;SDS011;1786;52.870;9.578;2023-03-01T10:37:56;3.37;;;3.17;;
3543;SDS011;1786;52.870;9.578;2023-03-01T10:40:22;2.60;;;2.40;;
3543;SDS011;1786;52.870;9.578;2023-03-01T10:42:49;3.43;;;3.13;;
3543;SDS011;1786;52.870;9.578;2023-03-01T10:45:17;3.60;;;3.00;;
3543;SDS011;1786;52.870;9.578;2023-03-01T10:48:05;3.07;;;2.77;;
3543;SDS011;1786;52.870;9.578;2023-03-01T10:50:32;4.90;;;3.70;;
3543;SDS011;1786;52.870;9.578;2023-03-01T10:53:03;3.20;;;2.53;;
3543;SDS011;1786;52.870;9.578;2023-03-01T10:55:37;4.37;;;3.90;;
3543;SDS011;1786;52.870;9.578;2023-03-01T10:58:09;3.40;;;3.20;;
3543;SDS011;1786;52.870;9.578;2023-03-01T11:00:45;3.60;;;3.33;;
3543;SDS011;1786;52.870;9.578;2023-03-01T11:03:13;3.70;;;3.40;;
3543;SDS011;1786;52.870;9.578;2023-03-01T11:05:54;7.60;;;5.70;;
3543;SDS011;1786;52.870;9.578;2023-03-01T11:11:22;4.93;;;4.10;;
3543;SDS011;1786;52.870;9.578;2023-03-01T11:13:59;3.77;;;3.47;;
3543;SDS011;1786;52.870;9.578;2023-03-01T11:16:31;4.77;;;4.37;;
3543;SDS011;1786;52.870;9.578;2023-03-01T11:19:04;10.20;;;4.10;;
3543;SDS011;1786;52.870;9.578;2023-03-01T11:21:31;4.07;;;3.70;;
3543;SDS011;1786;52.870;9.578;2023-03-01T11:23:59;5.10;;;4.60;;
3543;SDS011;1786;52.870;9.578;2023-03-01T11:26:27;5.70;;;4.17;;
3543;SDS011;1786;52.870;9.578;2023-03-01T11:28:55;7.30;;;4.70;;
3543;SDS011;1786;52.870;9.578;2023-03-01T11:31:23;5.30;;;4.80;;
3543;SDS011;1786;52.870;9.578;2023-03-01T11:33:54;5.50;;;5.00;;
3543;SDS011;1786;52.870;9.578;2023-03-01T11:36:30;5.80;;;4.03;;
3543;SDS011;1786;52.870;9.578;2023-03-01T11:39:02;4.37;;;3.97;;
3543;SDS011;1786;52.870;9.578;2023-03-01T11:41:30;4.63;;;4.30;;
3543;SDS011;1786;52.870;9.578;2023-03-01T11:44:20;4.83;;;3.97;;
3543;SDS011;1786;52.870;9.578;2023-03-01T11:46:51;6.00;;;5.03;;
3543;SDS011;1786;52.870;9.578;2023-03-01T11:52:16;5.37;;;4.80;;
3543;SDS011;1786;52.870;9.578;2023-03-01T11:54:53;7.30;;;4.93;;
3543;SDS011;1786;52.870;9.578;2023-03-01T12:00:34;6.17;;;5.10;;
3543;SDS011;1786;52.870;9.578;2023-03-01T12:05:34;5.10;;;4.43;;
3543;SDS011;1786;52.870;9.578;2023-03-01T12:10:52;4.43;;;4.00;;
3543;SDS011;1786;52.870;9.578;2023-03-01T12:15:58;5.83;;;4.43;;
3543;SDS011;1786;52.870;9.578;2023-03-01T12:26:31;4.27;;;3.87;;
3543;SDS011;1786;52.870;9.578;2023-03-01T12:29:05;5.97;;;4.90;;
3543;SDS011;1786;52.870;9.578;2023-03-01T12:31:40;9.20;;;5.77;;
3543;SDS011;1786;52.870;9.578;2023-03-01T12:34:46;8.50;;;5.83;;
3543;SDS011;1786;52.870;9.578;2023-03-01T12:42:35;4.53;;;4.17;;
3543;SDS011;1786;52.870;9.578;2023-03-01T12:50:21;7.10;;;5.40;;
3543;SDS011;1786;52.870;9.578;2023-03-01T12:52:56;7.90;;;5.33;;
3543;SDS011;1786;52.870;9.578;2023-03-01T12:55:38;6.73;;;5.27;;
3543;SDS011;1786;52.870;9.578;2023-03-01T13:00:43;6.40;;;5.40;;
3543;SDS011;1786;52.870;9.578;2023-03-01T13:03:19;8.50;;;6.63;;
3543;SDS011;1786;52.870;9.578;2023-03-01T13:05:57;7.83;;;6.43;;
3543;SDS011;1786;52.870;9.578;2023-03-01T13:08:36;9.67;;;6.63;;
3543;SDS011;1786;52.870;9.578;2023-03-01T13:11:06;9.37;;;6.53;;
3543;SDS011;1786;52.870;9.578;2023-03-01T13:13:37;7.90;;;7.10;;
3543;SDS011;1786;52.870;9.578;2023-03-01T13:16:19;9.70;;;7.20;;
3543;SDS011;1786;52.870;9.578;2023-03-01T13:18:46;9.70;;;7.67;;
3543;SDS011;1786;52.870;9.578;2023-03-01T13:21:13;6.73;;;6.00;;
3543;SDS011;1786;52.870;9.578;2023-03-01T13:23:55;6.90;;;6.20;;
3543;SDS011;1786;52.870;9.578;2023-03-01T13:26:22;7.83;;;6.80;;
3543;SDS011;1786;52.870;9.578;2023-03-01T13:28:49;7.77;;;5.93;;
3543;SDS011;1786;52.870;9.578;2023-03-01T13:33:46;8.00;;;5.10;;
3543;SDS011;1786;52.870;9.578;2023-03-01T13:38:58;5.50;;;4.10;;
3543;SDS011;1786;52.870;9.578;2023-03-01T13:46:45;8.70;;;4.30;;
3543;SDS011;1786;52.870;9.578;2023-03-01T13:49:18;30.37;;;6.00;;
3543;SDS011;1786;52.870;9.578;2023-03-01T13:51:46;6.00;;;4.80;;
3543;SDS011;1786;52.870;9.578;2023-03-01T13:54:13;6.43;;;4.30;;
3543;SDS011;1786;52.870;9.578;2023-03-01T13:56:40;4.83;;;4.40;;
3543;SDS011;1786;52.870;9.578;2023-03-01T13:59:14;6.33;;;3.93;;
3543;SDS011;1786;52.870;9.578;2023-03-01T14:01:41;4.30;;;3.53;;
3543;SDS011;1786;52.870;9.578;2023-03-01T14:04:23;5.00;;;4.60;;
3543;SDS011;1786;52.870;9.578;2023-03-01T14:06:50;3.83;;;3.53;;
3543;SDS011;1786;52.870;9.578;2023-03-01T14:09:23;4.27;;;3.97;;
3543;SDS011;1786;52.870;9.578;2023-03-01T14:12:10;3.97;;;3.67;;
3543;SDS011;1786;52.870;9.578;2023-03-01T14:14:57;4.70;;;4.40;;
3543;SDS011;1786;52.870;9.578;2023-03-01T14:19:59;3.77;;;3.50;;
3543;SDS011;1786;52.870;9.578;2023-03-01T14:22:28;4.40;;;3.97;;
3543;SDS011;1786;52.870;9.578;2023-03-01T14:24:56;4.30;;;3.87;;
3543;SDS011;1786;52.870;9.578;2023-03-01T14:27:35;4.03;;;3.70;;
3543;SDS011;1786;52.870;9.578;2023-03-01T14:30:03;3.20;;;3.00;;
3543;SDS011;1786;52.870;9.578;2023-03-01T14:32:36;3.53;;;3.23;;
3543;SDS011;1786;52.870;9.578;2023-03-01T14:35:02;3.23;;;3.03;;
3543;SDS011;1786;52.870;9.578;2023-03-01T14:37:31;3.77;;;3.47;;
3543;SDS011;1786;52.870;9.578;2023-03-01T14:39:59;3.40;;;3.10;;
3543;SDS011;1786;52.870;9.578;2023-03-01T14:42:31;3.83;;;3.30;;
3543;SDS011;1786;52.870;9.578;2023-03-01T14:44:58;5.67;;;3.07;;
3543;SDS011;1786;52.870;9.578;2023-03-01T14:47:28;3.00;;;2.80;;
3543;SDS011;1786;52.870;9.578;2023-03-01T14:49:59;3.73;;;3.20;;
3543;SDS011;1786;52.870;9.578;2023-03-01T14:52:30;3.67;;;3.47;;
3543;SDS011;1786;52.870;9.578;2023-03-01T14:54:57;10.40;;;4.00;;
3543;SDS011;1786;52.870;9.578;2023-03-01T14:57:25;3.77;;;3.47;;
3543;SDS011;1786;52.870;9.578;2023-03-01T14:59:53;4.30;;;3.57;;
3543;SDS011;1786;52.870;9.578;2023-03-01T15:02:22;4.00;;;3.67;;
3543;SDS011;1786;52.870;9.578;2023-03-01T15:04:50;4.00;;;3.63;;
3543;SDS011;1786;52.870;9.578;2023-03-01T15:07:17;3.40;;;3.20;;
3543;SDS011;1786;52.870;9.578;2023-03-01T15:09:44;5.50;;;3.20;;
3543;SDS011;1786;52.870;9.578;2023-03-01T15:14:54;3.40;;;2.70;;
3543;SDS011;1786;52.870;9.578;2023-03-01T15:17:33;4.67;;;3.50;;
3543;SDS011;1786;52.870;9.578;2023-03-01T15:20:02;3.50;;;3.23;;
3543;SDS011;1786;52.870;9.578;2023-03-01T15:22:30;4.70;;;3.60;;
3543;SDS011;1786;52.870;9.578;2023-03-01T15:24:56;3.80;;;3.50;;
3543;SDS011;1786;52.870;9.578;2023-03-01T15:27:23;4.53;;;4.00;;
3543;SDS011;1786;52.870;9.578;2023-03-01T15:32:25;5.20;;;3.40;;
3543;SDS011;1786;52.870;9.578;2023-03-01T15:34:52;5.80;;;3.30;;
3543;SDS011;1786;52.870;9.578;2023-03-01T15:37:36;3.77;;;3.10;;
3543;SDS011;1786;52.870;9.578;2023-03-01T15:40:17;3.50;;;3.20;;
3543;SDS011;1786;52.870;9.578;2023-03-01T15:42:45;3.27;;;3.07;;
3543;SDS011;1786;52.870;9.578;2023-03-01T15:45:21;3.23;;;3.03;;
3543;SDS011;1786;52.870;9.578;2023-03-01T15:47:48;10.50;;;3.30;;
3543;SDS011;1786;52.870;9.578;2023-03-01T15:50:21;3.67;;;3.37;;
3543;SDS011;1786;52.870;9.578;2023-03-01T15:52:48;3.53;;;3.27;;
3543;SDS011;1786;52.870;9.578;2023-03-01T15:55:22;7.70;;;3.33;;
3543;SDS011;1786;52.870;9.578;2023-03-01T15:57:49;6.07;;;3.37;;
3543;SDS011;1786;52.870;9.578;2023-03-01T16:00:16;3.20;;;2.83;;
3543;SDS011;1786;52.870;9.578;2023-03-01T16:02:44;3.53;;;3.20;;
3543;SDS011;1786;52.870;9.578;2023-03-01T16:05:16;3.30;;;3.03;;
3543;SDS011;1786;52.870;9.578;2023-03-01T16:07:43;4.73;;;2.87;;
3543;SDS011;1786;52.870;9.578;2023-03-01T16:10:10;4.80;;;3.30;;
3543;SDS011;1786;52.870;9.578;2023-03-01T16:12:36;3.10;;;2.90;;
3543;SDS011;1786;52.870;9.578;2023-03-01T16:15:10;3.20;;;2.70;;
3543;SDS011;1786;52.870;9.578;2023-03-01T16:17:40;2.77;;;2.67;;
3543;SDS011;1786;52.870;9.578;2023-03-01T16:20:06;3.10;;;2.90;;
3543;SDS011;1786;52.870;9.578;2023-03-01T16:22:35;3.83;;;3.50;;
3543;SDS011;1786;52.870;9.578;2023-03-01T16:25:01;3.13;;;2.80;;
3543;SDS011;1786;52.870;9.578;2023-03-01T16:27:29;3.47;;;3.10;;
3543;SDS011;1786;52.870;9.578;2023-03-01T16:29:55;5.07;;;2.60;;
3543;SDS011;1786;52.870;9.578;2023-03-01T16:32:21;2.67;;;2.43;;
3543;SDS011;1786;52.870;9.578;2023-03-01T16:34:49;3.43;;;3.13;;
3543;SDS011;1786;52.870;9.578;2023-03-01T16:37:15;3.03;;;2.83;;
3543;SDS011;1786;52.870;9.578;2023-03-01T16:39:42;2.57;;;2.47;;
3543;SDS011;1786;52.870;9.578;2023-03-01T16:42:08;5.20;;;4.70;;
3543;SDS011;1786;52.870;9.578;2023-03-01T16:44:35;5.50;;;4.90;;